Aviation Digital Data Service (ADDS)

Output produced by METARs form (1640 UTC 23 January 2019)
found at http://www.aviationweather.gov/metar/data/
 
METAR text: OAIX 231558Z 00000KT 9999 CLR M01/M04 A3018 RMK AO2A SLP205 T10081045 $
Conditions at: OAIX (BAGRAM , AF) observed 1558 UTC 23 January 2019
Temperature: -0.8°C (31°F)
Dewpoint: -4.5°C (24°F) [RH = 76%]
Pressure (altimeter): 30.18 inches Hg (1022.1 mb)
[Sea-level pressure: 1020.5 mb]
Winds: calm
Visibility: 6 or more miles (10+ km)
Ceiling: at least 12,000 feet AGL
Clouds: sky clear below 12,000 feet AGL
Weather:
SOME DATA ABOVE MAY BE INACCURATE!!!
"$" is an indication the sensor requires maintenance

METAR text: OAIX 231458Z 00000KT 9999 CLR 00/M05 A3017 RMK AO2A SLP205 T10001051 52014 $
Conditions at: OAIX (BAGRAM , AF) observed 1458 UTC 23 January 2019
Temperature: 0.0°C (32°F)
Dewpoint: -5.1°C (23°F) [RH = 68%]
Pressure (altimeter): 30.17 inches Hg (1021.8 mb)
[Sea-level pressure: 1020.5 mb]
Winds: calm
Visibility: 6 or more miles (10+ km)
Ceiling: at least 12,000 feet AGL
Clouds: sky clear below 12,000 feet AGL
Weather:
SOME DATA ABOVE MAY BE INACCURATE!!!
"$" is an indication the sensor requires maintenance

METAR text: OAIX 231358Z 00000KT 9999 CLR 02/M06 A3015 RMK AO2A SLP190 T00221063 $
Conditions at: OAIX (BAGRAM , AF) observed 1358 UTC 23 January 2019
Temperature: 2.2°C (36°F)
Dewpoint: -6.3°C (21°F) [RH = 53%]
Pressure (altimeter): 30.15 inches Hg (1021.1 mb)
[Sea-level pressure: 1019.0 mb]
Winds: calm
Visibility: 6 or more miles (10+ km)
Ceiling: at least 12,000 feet AGL
Clouds: sky clear below 12,000 feet AGL
Weather:
SOME DATA ABOVE MAY BE INACCURATE!!!
"$" is an indication the sensor requires maintenance

METAR text: OAIX 231258Z 00000KT 9999 CLR 04/M10 A3013 RMK AO2A SLP180 T00391105 $
Conditions at: OAIX (BAGRAM , AF) observed 1258 UTC 23 January 2019
Temperature: 3.9°C (39°F)
Dewpoint: -10.5°C (13°F) [RH = 34%]
Pressure (altimeter): 30.13 inches Hg (1020.4 mb)
[Sea-level pressure: 1018.0 mb]
Winds: calm
Visibility: 6 or more miles (10+ km)
Ceiling: at least 12,000 feet AGL
Clouds: sky clear below 12,000 feet AGL
Weather:
SOME DATA ABOVE MAY BE INACCURATE!!!
"$" is an indication the sensor requires maintenance

METAR text: OAIX 231158Z 00000KT 9999 FEW090 05/M10 A3012 RMK AO2A SLP176 T00491100 10057 20024 56001 $
Conditions at: OAIX (BAGRAM , AF) observed 1158 UTC 23 January 2019
Temperature: 4.9°C (41°F)
Dewpoint: -10.0°C (14°F) [RH = 33%]
Pressure (altimeter): 30.12 inches Hg (1020.1 mb)
[Sea-level pressure: 1017.6 mb]
Winds: calm
Visibility: 6 or more miles (10+ km)
Ceiling: at least 12,000 feet AGL
Clouds: few clouds at 9000 feet AGL
Weather:
SOME DATA ABOVE MAY BE INACCURATE!!!
"$" is an indication the sensor requires maintenance

METAR text: OAIX 231058Z 00000KT 9999 FEW070 SCT090 05/M11 A3012 RMK AO2A SLP176 T00541106 $
Conditions at: OAIX (BAGRAM , AF) observed 1058 UTC 23 January 2019
Temperature: 5.4°C (42°F)
Dewpoint: -10.6°C (13°F) [RH = 30%]
Pressure (altimeter): 30.12 inches Hg (1020.1 mb)
[Sea-level pressure: 1017.6 mb]
Winds: calm
Visibility: 6 or more miles (10+ km)
Ceiling: at least 12,000 feet AGL
Clouds: few clouds at 7000 feet AGL
scattered clouds at 9000 feet AGL
Weather:
SOME DATA ABOVE MAY BE INACCURATE!!!
"$" is an indication the sensor requires maintenance

METAR text: OAIX 230956Z 00000KT 9999 SCT060 05/M10 A3012 RMK AO2A SLP176 T00491103 $
Conditions at: OAIX (BAGRAM , AF) observed 0956 UTC 23 January 2019
Temperature: 4.9°C (41°F)
Dewpoint: -10.3°C (13°F) [RH = 32%]
Pressure (altimeter): 30.12 inches Hg (1020.1 mb)
[Sea-level pressure: 1017.6 mb]
Winds: calm
Visibility: 6 or more miles (10+ km)
Ceiling: at least 12,000 feet AGL
Clouds: scattered clouds at 6000 feet AGL
Weather:
SOME DATA ABOVE MAY BE INACCURATE!!!
"$" is an indication the sensor requires maintenance

METAR text: OAIX 230938Z 29005KT 9999 SCT070 05/M11 A3012 RMK AO2A SLP176 $
Conditions at: OAIX (BAGRAM , AF) observed 0938 UTC 23 January 2019
Temperature: 5.0°C (41°F)
Dewpoint: -11.0°C (12°F) [RH = 30%]
Pressure (altimeter): 30.12 inches Hg (1020.1 mb)
[Sea-level pressure: 1017.6 mb]
Winds: from the WNW (290 degrees) at 6 MPH (5 knots; 2.6 m/s)
Visibility: 6 or more miles (10+ km)
Ceiling: at least 12,000 feet AGL
Clouds: scattered clouds at 7000 feet AGL
Weather:
SOME DATA ABOVE MAY BE INACCURATE!!!
"$" is an indication the sensor requires maintenance

METAR text: OAIX 230857Z 24006KT 9999 CLR 05/M10 A3013 RMK AO2A SLP176 T00491103 57011 $
Conditions at: OAIX (BAGRAM , AF) observed 0857 UTC 23 January 2019
Temperature: 4.9°C (41°F)
Dewpoint: -10.3°C (13°F) [RH = 32%]
Pressure (altimeter): 30.13 inches Hg (1020.4 mb)
[Sea-level pressure: 1017.6 mb]
Winds: from the WSW (240 degrees) at 7 MPH (6 knots; 3.1 m/s)
Visibility: 6 or more miles (10+ km)
Ceiling: at least 12,000 feet AGL
Clouds: sky clear below 12,000 feet AGL
Weather:
SOME DATA ABOVE MAY BE INACCURATE!!!
"$" is an indication the sensor requires maintenance

METAR text: OAIX 230757Z 00000KT 9999 CLR 04/M09 A3014 RMK AO2A SLP183 T00421086 $
Conditions at: OAIX (BAGRAM , AF) observed 0757 UTC 23 January 2019
Temperature: 4.2°C (40°F)
Dewpoint: -8.6°C (17°F) [RH = 39%]
Pressure (altimeter): 30.14 inches Hg (1020.7 mb)
[Sea-level pressure: 1018.3 mb]
Winds: calm
Visibility: 6 or more miles (10+ km)
Ceiling: at least 12,000 feet AGL
Clouds: sky clear below 12,000 feet AGL
Weather:
SOME DATA ABOVE MAY BE INACCURATE!!!
"$" is an indication the sensor requires maintenance

METAR text: OAIX 230657Z 00000KT 9999 FEW070 03/M07 A3015 RMK AO2A SLP190 T00341073 $
Conditions at: OAIX (BAGRAM , AF) observed 0657 UTC 23 January 2019
Temperature: 3.4°C (38°F)
Dewpoint: -7.3°C (19°F) [RH = 45%]
Pressure (altimeter): 30.15 inches Hg (1021.1 mb)
[Sea-level pressure: 1019.0 mb]
Winds: calm
Visibility: 6 or more miles (10+ km)
Ceiling: at least 12,000 feet AGL
Clouds: few clouds at 7000 feet AGL
Weather:
SOME DATA ABOVE MAY BE INACCURATE!!!
"$" is an indication the sensor requires maintenance

METAR text: OAIX 230639Z 00000KT 9999 FEW070 03/M08 A3015 RMK AO2A SLP192 $
Conditions at: OAIX (BAGRAM , AF) observed 0639 UTC 23 January 2019
Temperature: 3.0°C (37°F)
Dewpoint: -8.0°C (18°F) [RH = 44%]
Pressure (altimeter): 30.15 inches Hg (1021.1 mb)
[Sea-level pressure: 1019.2 mb]
Winds: calm
Visibility: 6 or more miles (10+ km)
Ceiling: at least 12,000 feet AGL
Clouds: few clouds at 7000 feet AGL
Weather:
SOME DATA ABOVE MAY BE INACCURATE!!!
"$" is an indication the sensor requires maintenance

METAR text: OAIX 230619Z 00000KT 9999 SCT070 03/M08 A3015 RMK AO2A SLP194 $
Conditions at: OAIX (BAGRAM , AF) observed 0619 UTC 23 January 2019
Temperature: 3.0°C (37°F)
Dewpoint: -8.0°C (18°F) [RH = 44%]
Pressure (altimeter): 30.15 inches Hg (1021.1 mb)
[Sea-level pressure: 1019.4 mb]
Winds: calm
Visibility: 6 or more miles (10+ km)
Ceiling: at least 12,000 feet AGL
Clouds: scattered clouds at 7000 feet AGL
Weather:
SOME DATA ABOVE MAY BE INACCURATE!!!
"$" is an indication the sensor requires maintenance

METAR text: OAIX 230614Z 00000KT 9999 BKN070 03/M08 A3016 RMK AO2A SLP190 $
Conditions at: OAIX (BAGRAM , AF) observed 0614 UTC 23 January 2019
Temperature: 3.0°C (37°F)
Dewpoint: -8.0°C (18°F) [RH = 44%]
Pressure (altimeter): 30.16 inches Hg (1021.4 mb)
[Sea-level pressure: 1019.0 mb]
Winds: calm
Visibility: 6 or more miles (10+ km)
Ceiling: 7000 feet AGL
Clouds: broken clouds at 7000 feet AGL
Weather:
SOME DATA ABOVE MAY BE INACCURATE!!!
"$" is an indication the sensor requires maintenance

METAR text: OAIX 230556Z 00000KT 9999 OVC070 02/M09 A3016 RMK AO2A SLP195 T00191087 10019 21019 51014 $
Conditions at: OAIX (BAGRAM , AF) observed 0556 UTC 23 January 2019
Temperature: 1.9°C (35°F)
Dewpoint: -8.7°C (16°F) [RH = 45%]
Pressure (altimeter): 30.16 inches Hg (1021.4 mb)
[Sea-level pressure: 1019.5 mb]
Winds: calm
Visibility: 6 or more miles (10+ km)
Ceiling: 7000 feet AGL
Clouds: overcast cloud deck at 7000 feet AGL
Weather:
SOME DATA ABOVE MAY BE INACCURATE!!!
"$" is an indication the sensor requires maintenance

METAR text: OAIX 230457Z 00000KT 9999 BKN075 OVC095 01/M07 A3015 RMK AO2A SLP190 T00071071 $
Conditions at: OAIX (BAGRAM , AF) observed 0457 UTC 23 January 2019
Temperature: 0.7°C (33°F)
Dewpoint: -7.1°C (19°F) [RH = 56%]
Pressure (altimeter): 30.15 inches Hg (1021.1 mb)
[Sea-level pressure: 1019.0 mb]
Winds: calm
Visibility: 6 or more miles (10+ km)
Ceiling: 7500 feet AGL
Clouds: broken clouds at 7500 feet AGL
overcast cloud deck at 9500 feet AGL
Weather:
SOME DATA ABOVE MAY BE INACCURATE!!!
"$" is an indication the sensor requires maintenance

METAR text: OAIX 230356Z 00000KT 9999 BKN070 OVC095 00/M07 A3013 RMK AO2A SLP183 T10001072 $
Conditions at: OAIX (BAGRAM , AF) observed 0356 UTC 23 January 2019
Temperature: 0.0°C (32°F)
Dewpoint: -7.2°C (19°F) [RH = 58%]
Pressure (altimeter): 30.13 inches Hg (1020.4 mb)
[Sea-level pressure: 1018.3 mb]
Winds: calm
Visibility: 6 or more miles (10+ km)
Ceiling: 7000 feet AGL
Clouds: broken clouds at 7000 feet AGL
overcast cloud deck at 9500 feet AGL
Weather:
SOME DATA ABOVE MAY BE INACCURATE!!!
"$" is an indication the sensor requires maintenance

METAR text: OAIX 230331Z 00000KT 9999 OVC075 M01/M07 A3013 RMK AO2A SLP187 $
Conditions at: OAIX (BAGRAM , AF) observed 0331 UTC 23 January 2019
Temperature: -1.0°C (30°F)
Dewpoint: -7.0°C (19°F) [RH = 64%]
Pressure (altimeter): 30.13 inches Hg (1020.4 mb)
[Sea-level pressure: 1018.7 mb]
Winds: calm
Visibility: 6 or more miles (10+ km)
Ceiling: 7500 feet AGL
Clouds: overcast cloud deck at 7500 feet AGL
Weather:
SOME DATA ABOVE MAY BE INACCURATE!!!
"$" is an indication the sensor requires maintenance

METAR text: OAIX 230258Z 00000KT 9999 FEW060 SCT085 M01/M08 A3012 RMK AO2A SLP184 T10141076 52012 $
Conditions at: OAIX (BAGRAM , AF) observed 0258 UTC 23 January 2019
Temperature: -1.4°C (29°F)
Dewpoint: -7.6°C (18°F) [RH = 63%]
Pressure (altimeter): 30.12 inches Hg (1020.1 mb)
[Sea-level pressure: 1018.4 mb]
Winds: calm
Visibility: 6 or more miles (10+ km)
Ceiling: at least 12,000 feet AGL
Clouds: few clouds at 6000 feet AGL
scattered clouds at 8500 feet AGL
Weather:
SOME DATA ABOVE MAY BE INACCURATE!!!
"$" is an indication the sensor requires maintenance

METAR text: OAIX 230158Z 00000KT 9999 BKN090 M01/M05 A3010 RMK AO2A SLP173 T10141049 $
Conditions at: OAIX (BAGRAM , AF) observed 0158 UTC 23 January 2019
Temperature: -1.4°C (29°F)
Dewpoint: -4.9°C (23°F) [RH = 77%]
Pressure (altimeter): 30.10 inches Hg (1019.4 mb)
[Sea-level pressure: 1017.3 mb]
Winds: calm
Visibility: 6 or more miles (10+ km)
Ceiling: 9000 feet AGL
Clouds: broken clouds at 9000 feet AGL
Weather:
SOME DATA ABOVE MAY BE INACCURATE!!!
"$" is an indication the sensor requires maintenance

METAR text: OAIX 230058Z 00000KT 9999 SCT090 M01/M05 A3005 RMK AO2A SLP165 T10131053 $
Conditions at: OAIX (BAGRAM , AF) observed 0058 UTC 23 January 2019
Temperature: -1.3°C (30°F)
Dewpoint: -5.3°C (22°F) [RH = 74%]
Pressure (altimeter): 30.05 inches Hg (1017.7 mb)
[Sea-level pressure: 1016.5 mb]
Winds: calm
Visibility: 6 or more miles (10+ km)
Ceiling: at least 12,000 feet AGL
Clouds: scattered clouds at 9000 feet AGL
Weather:
SOME DATA ABOVE MAY BE INACCURATE!!!
"$" is an indication the sensor requires maintenance

METAR text: OAIX 222358Z 00000KT 9999 BKN120 M02/M06 A3008 RMK AO2A SLP162 T10181062 10002 21022 50000 $
Conditions at: OAIX (BAGRAM , AF) observed 2358 UTC 22 January 2019
Temperature: -1.8°C (29°F)
Dewpoint: -6.2°C (21°F) [RH = 72%]
Pressure (altimeter): 30.08 inches Hg (1018.7 mb)
[Sea-level pressure: 1016.2 mb]
Winds: calm
Visibility: 6 or more miles (10+ km)
Ceiling: 12000 feet AGL
Clouds: broken clouds at 12000 feet AGL
Weather:
SOME DATA ABOVE MAY BE INACCURATE!!!
"$" is an indication the sensor requires maintenance

METAR text: OAIX 222258Z 21004KT 9999 CLR M01/M07 A3008 RMK AO2A SLP162 T10111068 $
Conditions at: OAIX (BAGRAM , AF) observed 2258 UTC 22 January 2019
Temperature: -1.1°C (30°F)
Dewpoint: -6.8°C (20°F) [RH = 65%]
Pressure (altimeter): 30.08 inches Hg (1018.7 mb)
[Sea-level pressure: 1016.2 mb]
Winds: from the SSW (210 degrees) at 5 MPH (4 knots; 2.1 m/s)
Visibility: 6 or more miles (10+ km)
Ceiling: at least 12,000 feet AGL
Clouds: sky clear below 12,000 feet AGL
Weather:
SOME DATA ABOVE MAY BE INACCURATE!!!
"$" is an indication the sensor requires maintenance

METAR text: OAIX 222158Z 00000KT 9999 SCT075 BKN120 M01/M05 A3008 RMK AO2A SLP162 T10091055 $
Conditions at: OAIX (BAGRAM , AF) observed 2158 UTC 22 January 2019
Temperature: -0.9°C (30°F)
Dewpoint: -5.5°C (22°F) [RH = 71%]
Pressure (altimeter): 30.08 inches Hg (1018.7 mb)
[Sea-level pressure: 1016.2 mb]
Winds: calm
Visibility: 6 or more miles (10+ km)
Ceiling: 12000 feet AGL
Clouds: scattered clouds at 7500 feet AGL
broken clouds at 12000 feet AGL
Weather:
SOME DATA ABOVE MAY BE INACCURATE!!!
"$" is an indication the sensor requires maintenance

METAR text: OAIX 222058Z 00000KT 9999 BKN095 00/M05 A3008 RMK AO2A CIG 070 RWY21 SLP159 T00011049 50004 $
Conditions at: OAIX (BAGRAM , AF) observed 2058 UTC 22 January 2019
Temperature: 0.1°C (32°F)
Dewpoint: -4.9°C (23°F) [RH = 69%]
Pressure (altimeter): 30.08 inches Hg (1018.7 mb)
[Sea-level pressure: 1015.9 mb]
Winds: calm
Visibility: 6 or more miles (10+ km)
Ceiling: 9500 feet AGL
Clouds: broken clouds at 9500 feet AGL
Weather:
SOME DATA ABOVE MAY BE INACCURATE!!!
"$" is an indication the sensor requires maintenance

METAR text: OAIX 221958Z 00000KT 9999 FEW070 SCT090 00/M04 A3007 RMK AO2A SLPNO T10021039 $
Conditions at: OAIX (BAGRAM , AF) observed 1958 UTC 22 January 2019
Temperature: -0.2°C (32°F)
Dewpoint: -3.9°C (25°F) [RH = 76%]
Pressure (altimeter): 30.07 inches Hg (1018.4 mb)
Winds: calm
Visibility: 6 or more miles (10+ km)
Ceiling: at least 12,000 feet AGL
Clouds: few clouds at 7000 feet AGL
scattered clouds at 9000 feet AGL
Weather:
SOME DATA ABOVE MAY BE INACCURATE!!!
"$" is an indication the sensor requires maintenance

METAR text: OAIX 221858Z 00000KT 9999 BKN075 BKN090 BKN120 00/M05 A3008 RMK AO2A SLP162 T10051046 400541031 $
Conditions at: OAIX (BAGRAM , AF) observed 1858 UTC 22 January 2019
Temperature: -0.5°C (31°F)
Dewpoint: -4.6°C (24°F) [RH = 74%]
Pressure (altimeter): 30.08 inches Hg (1018.7 mb)
[Sea-level pressure: 1016.2 mb]
Winds: calm
Visibility: 6 or more miles (10+ km)
Ceiling: 7500 feet AGL
Clouds: broken clouds at 7500 feet AGL
broken clouds at 9000 feet AGL
broken clouds at 12000 feet AGL
Weather:
SOME DATA ABOVE MAY BE INACCURATE!!!
"$" is an indication the sensor requires maintenance

METAR text: OAIX 221758Z 00000KT 9999 OVC080 00/M05 A3006 RMK AO2A SLP155 T10021050 10044 21005 52009 $
Conditions at: OAIX (BAGRAM , AF) observed 1758 UTC 22 January 2019
Temperature: -0.2°C (32°F)
Dewpoint: -5.0°C (23°F) [RH = 70%]
Pressure (altimeter): 30.06 inches Hg (1018.0 mb)
[Sea-level pressure: 1015.5 mb]
Winds: calm
Visibility: 6 or more miles (10+ km)
Ceiling: 8000 feet AGL
Clouds: overcast cloud deck at 8000 feet AGL
Weather:
SOME DATA ABOVE MAY BE INACCURATE!!!
"$" is an indication the sensor requires maintenance

METAR text: OAIX 221658Z 00000KT 9999 SCT080 01/M05 A3005 RMK AO2A LTG DSNT SE SLPNO T00051048 $
Conditions at: OAIX (BAGRAM , AF) observed 1658 UTC 22 January 2019
Temperature: 0.5°C (33°F)
Dewpoint: -4.8°C (23°F) [RH = 68%]
Pressure (altimeter): 30.05 inches Hg (1017.7 mb)
Winds: calm
Visibility: 6 or more miles (10+ km)
Ceiling: at least 12,000 feet AGL
Clouds: scattered clouds at 8000 feet AGL
Weather:
SOME DATA ABOVE MAY BE INACCURATE!!!
"$" is an indication the sensor requires maintenance

METAR text: OAIX 221558Z 00000KT 9999 SCT090 01/M04 A3004 RMK AO2A SLPNO T00081042 $
Conditions at: OAIX (BAGRAM , AF) observed 1558 UTC 22 January 2019
Temperature: 0.8°C (33°F)
Dewpoint: -4.2°C (24°F) [RH = 69%]
Pressure (altimeter): 30.04 inches Hg (1017.4 mb)
Winds: calm
Visibility: 6 or more miles (10+ km)
Ceiling: at least 12,000 feet AGL
Clouds: scattered clouds at 9000 feet AGL
Weather:
SOME DATA ABOVE MAY BE INACCURATE!!!
"$" is an indication the sensor requires maintenance

METAR text: OAIX 221458Z 00000KT 9999 BKN090 00/M04 A3003 RMK AO2A SLPNO T00031041 52020 $
Conditions at: OAIX (BAGRAM , AF) observed 1458 UTC 22 January 2019
Temperature: 0.3°C (33°F)
Dewpoint: -4.1°C (25°F) [RH = 72%]
Pressure (altimeter): 30.03 inches Hg (1017.0 mb)
Winds: calm
Visibility: 6 or more miles (10+ km)
Ceiling: 9000 feet AGL
Clouds: broken clouds at 9000 feet AGL
Weather:
SOME DATA ABOVE MAY BE INACCURATE!!!
"$" is an indication the sensor requires maintenance

METAR text: OAIX 221358Z 00000KT 9999 CLR 02/M06 A3000 RMK AO2A SLPNO T00191056 $
Conditions at: OAIX (BAGRAM , AF) observed 1358 UTC 22 January 2019
Temperature: 1.9°C (35°F)
Dewpoint: -5.6°C (22°F) [RH = 57%]
Pressure (altimeter): 30.00 inches Hg (1016.0 mb)
Winds: calm
Visibility: 6 or more miles (10+ km)
Ceiling: at least 12,000 feet AGL
Clouds: sky clear below 12,000 feet AGL
Weather:
SOME DATA ABOVE MAY BE INACCURATE!!!
"$" is an indication the sensor requires maintenance

METAR text: OAIX 221258Z 00000KT 9999 CLR 04/M08 A2998 RMK AO2A SLPNO T00361085 $
Conditions at: OAIX (BAGRAM , AF) observed 1258 UTC 22 January 2019
Temperature: 3.6°C (38°F)
Dewpoint: -8.5°C (17°F) [RH = 41%]
Pressure (altimeter): 29.98 inches Hg (1015.3 mb)
Winds: calm
Visibility: 6 or more miles (10+ km)
Ceiling: at least 12,000 feet AGL
Clouds: sky clear below 12,000 feet AGL
Weather:
SOME DATA ABOVE MAY BE INACCURATE!!!
"$" is an indication the sensor requires maintenance

METAR text: OAIX 221158Z 00000KT 9999 CLR 05/M11 A2996 RMK AO2A SLPNO T00461106 10054 20026 53002 $
Conditions at: OAIX (BAGRAM , AF) observed 1158 UTC 22 January 2019
Temperature: 4.6°C (40°F)
Dewpoint: -10.6°C (13°F) [RH = 32%]
Pressure (altimeter): 29.96 inches Hg (1014.6 mb)
Winds: calm
Visibility: 6 or more miles (10+ km)
Ceiling: at least 12,000 feet AGL
Clouds: sky clear below 12,000 feet AGL
Weather:
SOME DATA ABOVE MAY BE INACCURATE!!!
"$" is an indication the sensor requires maintenance

METAR text: OAIX 221056Z 27006KT 9999 CLR 05/M11 A2995 RMK AO2A SLP117 T00521111 $
Conditions at: OAIX (BAGRAM , AF) observed 1056 UTC 22 January 2019
Temperature: 5.2°C (41°F)
Dewpoint: -11.1°C (12°F) [RH = 30%]
Pressure (altimeter): 29.95 inches Hg (1014.3 mb)
[Sea-level pressure: 1011.7 mb]
Winds: from the W (270 degrees) at 7 MPH (6 knots; 3.1 m/s)
Visibility: 6 or more miles (10+ km)
Ceiling: at least 12,000 feet AGL
Clouds: sky clear below 12,000 feet AGL
Weather:
SOME DATA ABOVE MAY BE INACCURATE!!!
"$" is an indication the sensor requires maintenance

METAR text: OAIX 220957Z 31004KT 9999 CLR 05/M10 A2994 RMK AO2A SLP115 T00471100 $
Conditions at: OAIX (BAGRAM , AF) observed 0957 UTC 22 January 2019
Temperature: 4.7°C (40°F)
Dewpoint: -10.0°C (14°F) [RH = 33%]
Pressure (altimeter): 29.94 inches Hg (1014.0 mb)
[Sea-level pressure: 1011.5 mb]
Winds: from the NW (310 degrees) at 5 MPH (4 knots; 2.1 m/s)
Visibility: 6 or more miles (10+ km)
Ceiling: at least 12,000 feet AGL
Clouds: sky clear below 12,000 feet AGL
Weather:
SOME DATA ABOVE MAY BE INACCURATE!!!
"$" is an indication the sensor requires maintenance

METAR text: OAIX 220858Z 25003KT 9999 CLR 05/M10 A2995 RMK AO2A SLP118 T00471096 58016 $
Conditions at: OAIX (BAGRAM , AF) observed 0858 UTC 22 January 2019
Temperature: 4.7°C (40°F)
Dewpoint: -9.6°C (15°F) [RH = 35%]
Pressure (altimeter): 29.95 inches Hg (1014.3 mb)
[Sea-level pressure: 1011.8 mb]
Winds: from the WSW (250 degrees) at 3 MPH (3 knots; 1.5 m/s)
Visibility: 6 or more miles (10+ km)
Ceiling: at least 12,000 feet AGL
Clouds: sky clear below 12,000 feet AGL
Weather:
SOME DATA ABOVE MAY BE INACCURATE!!!
"$" is an indication the sensor requires maintenance

METAR text: OAIX 220758Z AUTO 23004KT 9999 CLR 04/M10 A2998 RMK AO2 SLPNO T00441102 $
Conditions at: OAIX (BAGRAM , AF) observed 0758 UTC 22 January 2019
Temperature: 4.4°C (40°F)
Dewpoint: -10.2°C (14°F) [RH = 34%]
Pressure (altimeter): 29.98 inches Hg (1015.3 mb)
Winds: from the SW (230 degrees) at 5 MPH (4 knots; 2.1 m/s)
Visibility: 6 or more miles (10+ km)
Ceiling: at least 12,000 feet AGL
Clouds: sky clear below 12,000 feet AGL
Weather:
SOME DATA ABOVE MAY BE INACCURATE!!!
"$" is an indication the sensor requires maintenance

METAR text: OAIX 220757Z 00000KT 9999 CLR 04/M10 A2998 RMK AO2A SLP126 T00441102 $
Conditions at: OAIX (BAGRAM , AF) observed 0757 UTC 22 January 2019
Temperature: 4.4°C (40°F)
Dewpoint: -10.2°C (14°F) [RH = 34%]
Pressure (altimeter): 29.98 inches Hg (1015.3 mb)
[Sea-level pressure: 1012.6 mb]
Winds: calm
Visibility: 6 or more miles (10+ km)
Ceiling: at least 12,000 feet AGL
Clouds: sky clear below 12,000 feet AGL
Weather:
SOME DATA ABOVE MAY BE INACCURATE!!!
"$" is an indication the sensor requires maintenance

METAR text: OAIX 220656Z 00000KT 9999 SCT090 04/M10 A3000 RMK AO2A SLP134 T00411097 $
Conditions at: OAIX (BAGRAM , AF) observed 0656 UTC 22 January 2019
Temperature: 4.1°C (39°F)
Dewpoint: -9.7°C (15°F) [RH = 36%]
Pressure (altimeter): 30.00 inches Hg (1016.0 mb)
[Sea-level pressure: 1013.4 mb]
Winds: calm
Visibility: 6 or more miles (10+ km)
Ceiling: at least 12,000 feet AGL
Clouds: scattered clouds at 9000 feet AGL
Weather:
SOME DATA ABOVE MAY BE INACCURATE!!!
"$" is an indication the sensor requires maintenance

METAR text: OAIX 220559Z 00000KT 9999 BKN090 03/M10 A3001 RMK AO2A SLP141 T00261104 10027 21031 51012 $
Conditions at: OAIX (BAGRAM , AF) observed 0559 UTC 22 January 2019
Temperature: 2.6°C (37°F)
Dewpoint: -10.4°C (13°F) [RH = 38%]
Pressure (altimeter): 30.01 inches Hg (1016.3 mb)
[Sea-level pressure: 1014.1 mb]
Winds: calm
Visibility: 6 or more miles (10+ km)
Ceiling: 9000 feet AGL
Clouds: broken clouds at 9000 feet AGL
Weather:
SOME DATA ABOVE MAY BE INACCURATE!!!
"$" is an indication the sensor requires maintenance

METAR text: OAIX 220537Z 28008KT 9999 BKN090 02/M10 A3001 RMK AO2A SLP140 $
Conditions at: OAIX (BAGRAM , AF) observed 0537 UTC 22 January 2019
Temperature: 2.0°C (36°F)
Dewpoint: -10.0°C (14°F) [RH = 41%]
Pressure (altimeter): 30.01 inches Hg (1016.3 mb)
[Sea-level pressure: 1014.0 mb]
Winds: from the W (280 degrees) at 9 MPH (8 knots; 4.1 m/s)
Visibility: 6 or more miles (10+ km)
Ceiling: 9000 feet AGL
Clouds: broken clouds at 9000 feet AGL
Weather:
SOME DATA ABOVE MAY BE INACCURATE!!!
"$" is an indication the sensor requires maintenance

METAR text: OAIX 220457Z 00000KT 9999 BKN090 00/M10 A3001 RMK AO2A SLP138 T00041098 $
Conditions at: OAIX (BAGRAM , AF) observed 0457 UTC 22 January 2019
Temperature: 0.4°C (33°F)
Dewpoint: -9.8°C (14°F) [RH = 46%]
Pressure (altimeter): 30.01 inches Hg (1016.3 mb)
[Sea-level pressure: 1013.8 mb]
Winds: calm
Visibility: 6 or more miles (10+ km)
Ceiling: 9000 feet AGL
Clouds: broken clouds at 9000 feet AGL
Weather:
SOME DATA ABOVE MAY BE INACCURATE!!!
"$" is an indication the sensor requires maintenance

Forecast for: OAIX (BAGRAM , AF)
Text: TAF OAIX 231500Z 2315/2421 VRB06KT 9999 SKC QNH3008INS TX05/2412Z TNM07/2402Z
Forecast period: 1500 UTC 23 January 2019 to 2100 UTC 24 January 2019
Forecast type: FROM: standard forecast or significant change
Winds: variable direction winds at 7 MPH (6 knots; 3.1 m/s)
Visibility: 6 or more miles 10+ km)
Clouds: clear skies
Weather: no significant weather forecast for this period